Skip to main content

NOAA/GLERL Met Station at Muskegon, MI

Previous 3 Hours (2 minute increments)
See also Previous 5 Days (top of hour)
Jump down to Data
Switch to [English][Metric]
Zoom: Click and drag, Pan: shift-click and drag, Unzoom: double-click, Unzoom All






See also 1-day windrose plot


NOAA/GLERL Met Station at Muskegon, MI

Previous 3 Hours (2 minute increments)
See also Previous 5 Days (top of hour only)
Jump up to Graphs
Switch to [English][Metric]
                  Wind  Wind  Wind   Air   Dew   Rel     Sta   PAR
                   Spd   Gst   Dir  Temp    Pt   Hum    Pres uE/m2/
YYYY-MM-DD   EDT   kts   kts   deg     F     F     %   in Hg   sec
2017-07-22 12:30  11.1  12.2   319  69.8  69.8  99.9   29.17  1456
2017-07-22 12:28  10.9  11.7   318  69.8  69.8  99.9   29.17   752
2017-07-22 12:26  11.1  12.2   317  70.0  70.0  99.9   29.17   640
2017-07-22 12:24  11.1  12.1   317  69.8  69.8  99.9   29.16   882
2017-07-22 12:22  11.5  12.1   317  69.8  69.8  99.9   29.16  1249
2017-07-22 12:20  11.5  12.8   317  69.8  69.8  99.9   29.16  1152
2017-07-22 12:18  11.7  12.6   319  69.8  69.8  99.9   29.16  1119
2017-07-22 12:16  12.1  13.4   318  69.6  69.6  99.9   29.17   960
2017-07-22 12:14  12.2  13.6   317  69.6  69.6  99.9   29.17   935
2017-07-22 12:12  12.1  13.0   314  69.6  69.6  99.9   29.16   972
2017-07-22 12:10  11.5  13.2   314  69.6  69.6  99.9   29.16   901
2017-07-22 12:08  11.7  12.6   313  69.6  69.6  99.9   29.16   754
2017-07-22 12:06  11.5  13.2   312  69.8  69.8  99.9   29.16   826
2017-07-22 12:04  10.5  11.9   310  69.8  69.8  99.9   29.16  1012
2017-07-22 12:02  10.1  10.9   309  69.8  69.8  99.9   29.16  1368
2017-07-22 12:00  10.3  11.3   304  69.8  69.8  99.9   29.16  1403
2017-07-22 11:58  11.1  11.9   303  69.8  69.8  99.9   29.16  1203
2017-07-22 11:56  10.9  11.7   302  70.0  70.0  99.9   29.16  1351
2017-07-22 11:54  11.9  12.8   302  70.0  70.0  99.9   29.16  1400
2017-07-22 11:52  11.1  12.8   301  70.0  70.0  99.9   29.16  1429
2017-07-22 11:50  11.5  12.1   301  70.0  70.0  99.9   29.16  1357
2017-07-22 11:48  11.3  12.2   304  70.0  70.0  99.9   29.16  1406
2017-07-22 11:46  11.5  12.6   306  70.0  70.0  99.9   29.16  1499
2017-07-22 11:44  11.7  12.8   309  69.8  69.8  99.9   29.16  1414
2017-07-22 11:42  12.2  13.4   307  69.8  69.8  99.9   29.16  1124
2017-07-22 11:40  12.1  13.2   307  69.8  69.8  99.9   29.16  1215
2017-07-22 11:38  12.6  14.8   304  69.8  69.8  99.9   29.16  1085
2017-07-22 11:36  11.1  13.0   298  69.8  69.8  99.9   29.16   880
2017-07-22 11:34  11.3  11.9   294  69.8  69.8  99.9   29.16   835
2017-07-22 11:32  11.3  12.2   291  69.8  69.8  99.9   29.16   672
2017-07-22 11:30  11.7  12.2   290  69.8  69.8  99.9   29.16   444
2017-07-22 11:28  11.5  12.2   291  69.8  69.8  99.9   29.16   471
2017-07-22 11:26  11.3  12.4   291  70.0  70.0  99.9   29.16   474
2017-07-22 11:24  10.7  11.9   292  70.0  70.0  99.9   29.16   346
2017-07-22 11:22  10.7  11.7   293  70.2  70.1  99.8   29.16   304
2017-07-22 11:20  10.7  11.7   293  70.2  70.1  99.7   29.16   542
2017-07-22 11:18  10.1  10.9   293  70.2  70.0  99.6   29.16   911
2017-07-22 11:16   8.9  10.3   294  70.3  70.2  99.6   29.16  1301
2017-07-22 11:14   8.9   9.9   294  70.3  70.3  99.7   29.16  1434
2017-07-22 11:12   7.8   8.9   294  70.3  70.3  99.8   29.16  1554
2017-07-22 11:10   7.8   8.7   294  70.2  70.1  99.9   29.16  1271
2017-07-22 11:08   8.0   8.9   294  70.2  70.1  99.9   29.16  1452
2017-07-22 11:06   7.6   8.4   294  70.0  70.0  99.9   29.16  1255
2017-07-22 11:04   8.4   9.3   293  70.0  70.0  99.9   29.16   672
2017-07-22 11:02   9.1  10.3   292  70.0  70.0  99.9   29.16   558
2017-07-22 11:00   9.5  10.5   288  70.0  70.0  99.9   29.16   745
2017-07-22 10:58   9.9  11.1   283  70.0  70.0  99.9   29.16   709
2017-07-22 10:56  10.5  11.7   280  70.0  70.0  99.9   29.16   622
2017-07-22 10:54  10.9  12.4   278  70.0  70.0  99.9   29.16   511
2017-07-22 10:52  11.3  12.2   277  70.0  70.0  99.9   29.16   542
2017-07-22 10:50  10.9  12.1   277  69.8  69.8  99.9   29.16   523
2017-07-22 10:48  10.3  11.3   273  69.8  69.8  99.9   29.16   488
2017-07-22 10:46   9.9  11.3   270  70.0  70.0  99.9   29.16   402
2017-07-22 10:44  10.7  11.5   269  70.0  70.0  99.9   29.16   374
2017-07-22 10:42  11.3  12.1   267  70.2  70.1  99.9   29.16   408
2017-07-22 10:40  11.9  12.6   265  70.2  70.1  99.9   29.16   410
2017-07-22 10:38  12.2  13.4   266  70.2  70.1  99.9   29.16   386
2017-07-22 10:36  12.2  14.0   265  70.2  70.1  99.9   29.16   368
2017-07-22 10:34  11.7  13.4   263  70.2  70.1  99.9   29.16   341
2017-07-22 10:32   9.9  11.9   265  70.2  70.1  99.9   29.16   311
2017-07-22 10:30  10.9  12.1   260  70.2  70.1  99.9   29.16   281
2017-07-22 10:28  10.7  12.1   257  70.2  70.1  99.9   29.16   287
2017-07-22 10:26  10.5  11.7   253  70.2  70.1  99.9   29.16   241
2017-07-22 10:24  10.7  11.5   249  70.2  70.1  99.9   29.16   262
2017-07-22 10:22   9.9  10.5   244  70.2  70.1  99.9   29.15   282
2017-07-22 10:20   9.7  10.7   241  70.2  70.1  99.9   29.15   287
2017-07-22 10:18  10.3  11.1   237  70.2  70.1  99.9   29.15   301
2017-07-22 10:16  10.3  10.5   232  70.2  70.1  99.9   29.14   345
2017-07-22 10:14  10.5  11.3   229  70.2  70.1  99.9   29.14   362
2017-07-22 10:12  10.5  10.9   224  70.2  70.1  99.9   29.14   342
2017-07-22 10:10  10.5  11.5   221  70.2  70.1  99.9   29.14   326
2017-07-22 10:08  10.9  11.5   221  70.2  70.1  99.9   29.14   316
2017-07-22 10:06  11.3  12.2   220  70.2  70.1  99.9   29.14   335
2017-07-22 10:04  11.1  12.1   218  70.2  70.1  99.9   29.15   331
2017-07-22 10:02  10.7  12.2   218  70.2  70.1  99.9   29.15   294
2017-07-22 10:00  10.1  10.9   218  70.2  70.1  99.9   29.15   265
2017-07-22 09:58  10.9  11.7   222  70.2  70.1  99.9   29.15   288
2017-07-22 09:56  10.7  11.5   223  70.3  70.3  99.9   29.16   255
2017-07-22 09:54  11.3  11.9   223  70.3  70.3  99.9   29.16   232
2017-07-22 09:52  10.9  11.9   222  70.3  70.3  99.9   29.16   253
2017-07-22 09:50  10.5  11.7   220  70.3  70.3  99.9   29.16   242
2017-07-22 09:48  11.1  11.7   220  70.3  70.3  99.8   29.16   198
2017-07-22 09:46  11.3  11.9   218  70.3  70.3  99.7   29.16   175
2017-07-22 09:44  11.5  12.1   219  70.5  70.4  99.7   29.16   181
2017-07-22 09:42  11.7  12.1   220  70.5  70.4  99.6   29.16   184
2017-07-22 09:40  10.3  11.9   218  70.5  70.4  99.5   29.16   184
2017-07-22 09:38   9.7  10.3   215  70.5  70.3  99.4   29.16   182
2017-07-22 09:36   9.9  11.3   214  70.5  70.3  99.3   29.16   201
2017-07-22 09:34   9.5  10.1   210  70.5  70.3  99.3   29.16   204
2017-07-22 09:32   9.7  11.7   208  70.5  70.3  99.3   29.16   240
2017-07-22 09:30  10.5  11.9   211  70.5  70.3  99.2   29.16   266